RJNO(METAR)
10/20 16:00
RJNO 200700Z 05007KT 9999 FEW040 19/10 Q1024 RMK A3026=
戻る
トップページへ戻る
IMOC Co,.Ltd.